createdAt,value
2023-04-06T00:00:11.934Z,65.79
2023-04-06T00:05:13.639Z,66.66
2023-04-06T00:10:17.012Z,66.97
2023-04-06T00:15:18.742Z,67.02
2023-04-06T00:20:20.499Z,67.33
2023-04-06T00:25:22.242Z,66.79
2023-04-06T00:30:23.987Z,67.35
2023-04-06T00:35:25.714Z,67.81
2023-04-06T00:40:29.454Z,67.95
2023-04-06T00:45:31.287Z,68.79
2023-04-06T00:50:33.091Z,69.43
2023-04-06T00:55:36.974Z,68.45
2023-04-06T01:00:39.340Z,68.41
2023-04-06T01:05:43.571Z,69.22
2023-04-06T01:10:53.577Z,68.69
2023-04-06T01:16:01.567Z,68.83
2023-04-06T01:21:17.396Z,68.59
2023-04-06T01:26:46.630Z,68.59
2023-04-06T01:31:48.663Z,68.71
2023-04-06T01:36:51.306Z,68.95
2023-04-06T01:42:02.820Z,69.09
2023-04-06T01:47:06.604Z,69.14
2023-04-06T01:52:08.734Z,69.42
2023-04-06T01:57:13.949Z,69.39
2023-04-06T02:02:26.697Z,69.19
2023-04-06T02:07:35.362Z,69.50
2023-04-06T02:12:37.261Z,69.38
2023-04-06T02:17:42.177Z,69.88
2023-04-06T02:22:45.532Z,69.78
2023-04-06T02:27:47.202Z,69.70
2023-04-06T02:32:49.039Z,70.18
2023-04-06T02:37:51.389Z,70.44
2023-04-06T02:42:53.098Z,70.19
2023-04-06T02:48:02.919Z,70.56
2023-04-06T02:53:07.357Z,70.31
2023-04-06T02:58:10.869Z,70.72
2023-04-06T03:03:23.162Z,70.17
2023-04-06T03:08:25.751Z,70.26
2023-04-06T03:13:27.512Z,70.63
2023-04-06T03:18:33.068Z,71.40
2023-04-06T03:23:34.857Z,71.37
2023-04-06T03:28:37.796Z,71.18
2023-04-06T03:33:41.828Z,71.61
2023-04-06T03:38:48.166Z,71.19
2023-04-06T03:43:50.916Z,71.66
2023-04-06T03:48:53.258Z,71.75
2023-04-06T03:53:57.127Z,71.60
2023-04-06T03:58:58.925Z,71.51
2023-04-06T04:04:01.220Z,71.77
2023-04-06T04:09:03.493Z,71.65
2023-04-06T04:14:05.282Z,71.68
2023-04-06T04:19:07.393Z,71.42
2023-04-06T04:24:09.228Z,72.03
2023-04-06T04:29:12.292Z,71.84
2023-04-06T04:34:15.983Z,70.69
2023-04-06T04:39:17.760Z,71.14
2023-04-06T04:44:24.885Z,70.55
2023-04-06T04:49:27.518Z,71.14
2023-04-06T04:54:30.714Z,71.78
2023-04-06T04:59:35.739Z,72.16
2023-04-06T05:04:46.457Z,72.27
2023-04-06T05:09:54.409Z,71.69
2023-04-06T05:15:00.469Z,71.28
2023-04-06T05:20:03.183Z,71.15
2023-04-06T05:25:09.999Z,70.29
2023-04-06T05:30:13.359Z,69.60
2023-04-06T05:35:19.480Z,68.49
2023-04-06T05:40:26.186Z,68.03
2023-04-06T05:45:28.515Z,66.93
2023-04-06T05:50:32.032Z,66.51
2023-04-06T05:55:34.316Z,66.29
2023-04-06T06:00:50.634Z,68.08
2023-04-06T06:06:00.805Z,65.66
2023-04-06T06:11:07.610Z,64.91
2023-04-06T06:16:09.626Z,64.98
2023-04-06T06:21:18.159Z,64.77
2023-04-06T06:26:20.637Z,64.25
2023-04-06T06:31:23.634Z,64.08
2023-04-06T06:36:26.696Z,62.75
2023-04-06T06:41:28.486Z,62.59
2023-04-06T06:46:30.611Z,62.14
2023-04-06T06:51:32.407Z,62.04
2023-04-06T06:56:34.176Z,61.19
2023-04-06T07:01:37.605Z,60.75
2023-04-06T07:06:39.765Z,60.07
2023-04-06T07:11:42.425Z,60.29
2023-04-06T07:16:46.177Z,60.48
2023-04-06T07:21:50.127Z,59.31
2023-04-06T07:26:51.854Z,59.11
2023-04-06T07:31:54.092Z,58.47
2023-04-06T07:36:57.653Z,58.41
2023-04-06T07:41:59.718Z,57.84
2023-04-06T07:47:02.033Z,57.49
2023-04-06T07:52:04.192Z,56.18
2023-04-06T07:57:07.497Z,55.53
2023-04-06T08:02:09.241Z,55.33
2023-04-06T08:07:10.946Z,55.00
2023-04-06T08:12:12.688Z,54.30
2023-04-06T08:17:14.416Z,54.00
2023-04-06T08:22:16.126Z,52.28
2023-04-06T08:27:18.218Z,51.94
2023-04-06T08:32:20.007Z,51.24
2023-04-06T08:37:22.331Z,50.77
2023-04-06T08:42:27.209Z,48.63
2023-04-06T08:47:29.149Z,47.62
2023-04-06T08:52:32.873Z,47.52
2023-04-06T08:57:36.677Z,46.29
2023-04-06T09:02:43.863Z,46.85
2023-04-06T09:07:46.273Z,44.71
2023-04-06T09:12:47.971Z,44.93
2023-04-06T09:17:49.864Z,45.20
2023-04-06T09:22:51.680Z,45.43
2023-04-06T09:28:01.416Z,43.00
2023-04-06T09:33:03.428Z,42.72
2023-04-06T09:38:11.987Z,42.59
2023-04-06T09:43:13.803Z,42.64
2023-04-06T09:48:16.202Z,41.90
2023-04-06T09:53:21.432Z,41.52
2023-04-06T09:58:27.240Z,40.32
2023-04-06T10:04:06.959Z,40.33
2023-04-06T10:09:09.527Z,39.99
2023-04-06T10:14:12.811Z,38.88
2023-04-06T10:19:21.932Z,37.86
2023-04-06T10:24:23.677Z,37.88
2023-04-06T10:29:25.425Z,38.91
2023-04-06T10:34:36.260Z,35.33
2023-04-06T10:39:47.135Z,34.21
2023-04-06T10:44:50.981Z,35.81
2023-04-06T10:49:52.761Z,36.37
2023-04-06T10:54:55.781Z,36.24
2023-04-06T10:59:57.467Z,37.26
2023-04-06T11:04:59.908Z,36.84
2023-04-06T11:10:15.066Z,36.57
2023-04-06T11:15:19.566Z,36.40
2023-04-06T11:20:21.413Z,37.20
2023-04-06T11:25:23.089Z,37.25
2023-04-06T11:30:24.873Z,36.98
2023-04-06T11:35:26.617Z,36.38
2023-04-06T11:40:30.416Z,36.42
2023-04-06T11:45:44.130Z,36.85
2023-04-06T11:50:48.545Z,35.86
2023-04-06T11:55:50.411Z,35.70
2023-04-06T12:00:52.156Z,35.22
2023-04-06T12:05:53.849Z,35.24
2023-04-06T12:10:55.545Z,35.72
2023-04-06T12:15:57.276Z,35.20
2023-04-06T12:20:58.977Z,34.37
2023-04-06T12:26:00.764Z,34.30
2023-04-06T12:31:02.593Z,35.65
2023-04-06T12:36:04.387Z,36.25
2023-04-06T12:41:06.116Z,35.97
2023-04-06T12:46:07.850Z,35.84
2023-04-06T12:51:09.572Z,36.38
2023-04-06T12:56:16.697Z,35.55
2023-04-06T13:01:18.764Z,35.60
2023-04-06T13:06:20.722Z,35.24
2023-04-06T13:11:26.905Z,35.90
2023-04-06T13:16:28.976Z,36.59
2023-04-06T13:21:31.532Z,36.46
2023-04-06T13:26:33.247Z,36.88
2023-04-06T13:31:34.938Z,37.08
2023-04-06T13:36:36.709Z,36.69
2023-04-06T13:41:38.476Z,36.02
2023-04-06T13:46:40.800Z,36.59
2023-04-06T13:51:43.118Z,36.00
2023-04-06T13:56:44.832Z,36.25
2023-04-06T14:01:46.685Z,36.65
2023-04-06T14:06:48.457Z,36.95
2023-04-06T14:11:51.051Z,35.90
2023-04-06T14:16:53.218Z,36.66
2023-04-06T14:21:55.529Z,35.25
2023-04-06T14:26:57.854Z,36.87
2023-04-06T14:32:01.159Z,36.42
2023-04-06T14:37:02.884Z,36.67
2023-04-06T14:42:04.669Z,37.08
2023-04-06T14:47:06.667Z,37.49
2023-04-06T14:52:08.484Z,37.56
2023-04-06T14:57:10.717Z,37.65
2023-04-06T15:02:12.402Z,36.94
2023-04-06T15:07:14.291Z,36.21
2023-04-06T15:12:15.905Z,36.42
2023-04-06T15:17:17.718Z,36.37
2023-04-06T15:22:19.312Z,36.78
2023-04-06T15:27:21.834Z,36.87
2023-04-06T15:32:23.917Z,36.76
2023-04-06T15:37:25.707Z,37.17
2023-04-06T15:42:27.422Z,37.45
2023-04-06T15:47:29.047Z,37.46
2023-04-06T15:52:30.819Z,36.94
2023-04-06T15:57:32.562Z,36.88
2023-04-06T16:02:34.398Z,37.29
2023-04-06T16:07:36.279Z,36.97
2023-04-06T16:12:38.291Z,36.97
2023-04-06T16:17:41.939Z,36.82
2023-04-06T16:22:43.641Z,37.55
2023-04-06T16:27:46.008Z,37.47
2023-04-06T16:32:51.682Z,37.12
2023-04-06T16:37:53.377Z,37.47
2023-04-06T16:42:55.455Z,38.05
2023-04-06T16:47:57.188Z,37.51
2023-04-06T16:52:58.985Z,37.61
2023-04-06T16:58:00.646Z,38.11
2023-04-06T17:03:02.932Z,37.79
2023-04-06T17:08:04.815Z,38.55
2023-04-06T17:13:06.840Z,37.93
2023-04-06T17:18:08.697Z,37.95
2023-04-06T17:23:10.365Z,37.78
2023-04-06T17:28:12.046Z,38.36
2023-04-06T17:33:13.758Z,38.66
2023-04-06T17:38:15.542Z,38.95
2023-04-06T17:43:17.164Z,38.85
2023-04-06T17:48:23.121Z,39.59
2023-04-06T17:53:30.532Z,39.46
2023-04-06T17:58:32.359Z,39.81
2023-04-06T18:03:34.333Z,40.13
2023-04-06T18:08:36.114Z,40.22
2023-04-06T18:13:39.436Z,40.94
2023-04-06T18:18:42.200Z,41.16
2023-04-06T18:23:43.972Z,41.71
2023-04-06T18:28:46.681Z,41.85
2023-04-06T18:33:48.403Z,41.99
2023-04-06T18:38:50.194Z,41.57
2023-04-06T18:43:52.117Z,42.16
2023-04-06T18:48:53.887Z,42.26
2023-04-06T18:53:56.355Z,42.00
2023-04-06T18:58:58.319Z,42.60
2023-04-06T19:04:00.849Z,42.74
2023-04-06T19:09:04.883Z,42.57
2023-04-06T19:14:06.603Z,42.69
2023-04-06T19:19:08.419Z,42.71
2023-04-06T19:24:12.116Z,43.33
2023-04-06T19:29:13.855Z,43.42
2023-04-06T19:34:17.688Z,43.47
2023-04-06T19:39:19.549Z,44.47
2023-04-06T19:44:21.324Z,49.64
2023-04-06T19:49:23.383Z,57.13
2023-04-06T19:54:26.542Z,57.84
2023-04-06T19:59:28.540Z,56.30
2023-04-06T20:04:30.444Z,60.86
2023-04-06T20:09:32.229Z,61.46
2023-04-06T20:14:34.292Z,60.95
2023-04-06T20:19:36.025Z,59.95
2023-04-06T20:24:37.615Z,63.56
2023-04-06T20:29:40.318Z,64.13
2023-04-06T20:34:41.928Z,61.29
2023-04-06T20:39:43.602Z,59.57
2023-04-06T20:44:45.388Z,63.02
2023-04-06T20:49:47.045Z,61.77
2023-04-06T20:54:50.607Z,62.98
2023-04-06T20:59:52.289Z,63.60
2023-04-06T21:04:53.958Z,64.69
2023-04-06T21:09:56.459Z,64.21
2023-04-06T21:14:58.058Z,65.00
2023-04-06T21:19:59.723Z,63.13
2023-04-06T21:25:01.408Z,63.68
2023-04-06T21:30:03.751Z,63.70
2023-04-06T21:35:05.818Z,65.13
2023-04-06T21:40:08.165Z,66.29
2023-04-06T21:45:10.217Z,64.79
2023-04-06T21:50:11.885Z,64.79
2023-04-06T21:55:13.510Z,63.43
2023-04-06T22:00:16.405Z,63.21
2023-04-06T22:05:18.303Z,64.06
2023-04-06T22:10:20.088Z,66.09
2023-04-06T22:15:21.823Z,66.00
2023-04-06T22:20:23.428Z,63.87
2023-04-06T22:25:25.041Z,64.88
2023-04-06T22:30:26.664Z,65.34
2023-04-06T22:35:28.267Z,66.38
2023-04-06T22:40:29.959Z,66.81
2023-04-06T22:45:31.825Z,67.53
2023-04-06T22:50:33.549Z,64.83
2023-04-06T22:55:35.359Z,65.58
2023-04-06T23:00:36.952Z,66.98
2023-04-06T23:05:38.681Z,65.75
2023-04-06T23:10:42.064Z,66.72
2023-04-06T23:15:43.972Z,66.78
2023-04-06T23:20:45.954Z,64.36
2023-04-06T23:25:47.624Z,65.33
2023-04-06T23:30:49.212Z,67.39
2023-04-06T23:35:52.179Z,65.58
2023-04-06T23:40:54.210Z,67.27
2023-04-06T23:45:56.042Z,68.70
2023-04-06T23:50:57.680Z,66.64
2023-04-06T23:55:59.305Z,64.45
